Bryant, Illinois
Current Conditions -  °F | °C
As of 9:59 AM on Thursday 27 Nov 2014 (Local Time) from KPIA Reporting Station
Light Snow Light Snow  
Wind Chill: 17°   Ceiling: 1400
Heat Index: 27°   Visibility: 3mi
Dew Point: 20°   Wind: 10mph
Humidity: 75%   Direction: 300°WNW
Pressure: 30.42"   Gusts: NA
Location:  40.47°N, 90.09°W
Report Text: KPIA 271559Z 30009KT 3SM -SN BKN014 BKN019 OVC037 M03/M07 A3042 RMK AO2 P0000 T10281067
Loading
Personal Weather Stations






























Interactive Weather Map New forecast layout! Learn more

10-Day Weather Forecast

Advertisements
Track Severe Weather on mobile